Terminal Aerodrome Forecast
Issued by NWS

Home | Current Version | Previous Version | Text Only | Print | Product List | Glossary On
Versions: 1 2 3 4 5 6 7 8 9 10 11 12 13 14 15 16 17 18 19 20 21 22 23 24 25 26 27 28 29 30 31 32 33 34
000
FTUS46 KLOX 011000 AAC
TAFLAX
TAF AMD
KLAX 011003Z 0110/0212 09005KT P6SM -SHRA SCT015 OVC035
     FM011300 11007KT P6SM -SHRA VCTS SCT025CB BKN035
     FM011800 19007KT P6SM -SHRA SCT025 OVC040
     FM012100 26010KT P6SM -SHRA SCT025 OVC045
     FM020400 29007KT P6SM VCSH SCT025 BKN035=

USA.gov is the U.S. government's official web portal to all federal, state and local government web resources and services.